Time;durP1;ratioP1;P1;durP2;ratioP2;P2;SDS_P1;SDS_P2;PMS_P1;PMS_P2;Temp;Humidity;BMP_temperature;BMP_pressure;BME280_temperature;BME280_humidity;BME280_pressure;Samples;Min_cycle;Max_cycle;Signal;HPM_P1;HPM_P2
2021/11/29 00:01:14;;;;;;;15.98;11.77;;;1.40;99.90;;;;;;5075813;28;20199;-67
2021/11/29 00:03:41;;;;;;;14.95;11.70;;;1.40;99.90;;;;;;5075912;28;20196;-66
2021/11/29 00:06:08;;;;;;;16.95;11.27;;;1.50;99.90;;;;;;5075560;28;20220;-67
2021/11/29 00:08:35;;;;;;;13.25;9.63;;;1.50;99.90;;;;;;5074576;28;20200;-67
2021/11/29 00:11:02;;;;;;;15.57;11.05;;;1.50;99.90;;;;;;5075595;28;20200;-67
2021/11/29 00:13:28;;;;;;;14.80;10.75;;;1.50;99.90;;;;;;5075069;28;20208;-67
2021/11/29 00:15:55;;;;;;;20.83;11.70;;;1.40;99.90;;;;;;5074972;28;20200;-67
2021/11/29 00:18:21;;;;;;;15.40;11.25;;;1.40;99.90;;;;;;5073794;28;20249;-67
2021/11/29 00:20:48;;;;;;;13.07;11.32;;;1.40;99.90;;;;;;5075302;28;20208;-66
2021/11/29 00:23:15;;;;;;;18.15;11.50;;;1.40;99.90;;;;;;5075080;28;20199;-68
2021/11/29 00:25:43;;;;;;;14.07;11.95;;;1.30;99.90;;;;;;5074769;28;20222;-67
2021/11/29 00:28:10;;;;;;;16.83;11.27;;;1.30;99.90;;;;;;5074998;28;20207;-67
2021/11/29 00:30:38;;;;;;;21.17;14.35;;;1.30;99.90;;;;;;5075158;28;20196;-67
2021/11/29 00:33:07;;;;;;;15.38;11.55;;;1.20;99.90;;;;;;5074802;28;20207;-67
2021/11/29 00:35:34;;;;;;;13.43;11.48;;;1.20;99.90;;;;;;5075122;28;20196;-67
2021/11/29 00:38:01;;;;;;;14.15;10.90;;;1.20;99.90;;;;;;5074461;28;20713;-67
2021/11/29 00:40:27;;;;;;;16.13;11.07;;;1.30;99.90;;;;;;5074277;28;20562;-67
2021/11/29 00:42:54;;;;;;;13.73;10.38;;;1.20;99.90;;;;;;5074519;28;20585;-67
2021/11/29 00:45:21;;;;;;;18.70;11.88;;;1.10;99.90;;;;;;5074363;28;20223;-67
2021/11/29 00:47:47;;;;;;;13.07;10.15;;;1.10;99.90;;;;;;5056764;28;20554;-67
2021/11/29 00:50:15;;;;;;;15.43;11.00;;;1.00;99.90;;;;;;5073998;28;20227;-67
2021/11/29 00:52:42;;;;;;;11.52;10.05;;;1.00;99.90;;;;;;5074242;28;20200;-67
2021/11/29 00:55:10;;;;;;;13.15;10.10;;;1.00;99.90;;;;;;5074474;28;20663;-68
2021/11/29 00:57:37;;;;;;;13.85;10.02;;;1.00;99.90;;;;;;5074284;28;20204;-67
2021/11/29 01:00:11;;;;;;;14.07;9.82;;;1.00;99.90;;;;;;5074255;28;20196;-67
2021/11/29 01:02:38;;;;;;;13.90;10.45;;;1.10;99.90;;;;;;5074335;28;20242;-67
2021/11/29 01:05:05;;;;;;;11.50;9.65;;;1.10;99.90;;;;;;5074705;28;20203;-67
2021/11/29 01:07:31;;;;;;;10.55;9.38;;;1.10;99.90;;;;;;5074171;28;20227;-67
2021/11/29 01:09:58;;;;;;;11.05;8.52;;;1.10;99.90;;;;;;5074174;28;20563;-66
2021/11/29 01:12:25;;;;;;;10.60;8.93;;;1.10;99.90;;;;;;5074659;28;20203;-68
2021/11/29 01:14:52;;;;;;;13.07;8.65;;;1.10;99.90;;;;;;5074361;28;20204;-67
2021/11/29 01:17:19;;;;;;;10.48;8.95;;;1.10;99.90;;;;;;5073964;28;20655;-67
2021/11/29 01:19:45;;;;;;;13.05;9.38;;;1.10;99.90;;;;;;5073665;28;20196;-66
2021/11/29 01:22:12;;;;;;;14.20;9.95;;;1.10;99.90;;;;;;5073965;28;20200;-67
2021/11/29 01:24:38;;;;;;;11.23;9.35;;;1.20;99.90;;;;;;5073682;28;20200;-66
2021/11/29 01:27:05;;;;;;;14.45;9.55;;;1.20;99.90;;;;;;5073682;28;20223;-67
2021/11/29 01:29:32;;;;;;;16.10;11.45;;;1.10;99.90;;;;;;5073763;28;20207;-67
2021/11/29 01:31:58;;;;;;;18.70;11.23;;;1.10;99.90;;;;;;5072969;28;20537;-66
2021/11/29 01:34:25;;;;;;;12.25;9.45;;;1.10;99.90;;;;;;5074044;28;20196;-67
2021/11/29 01:36:52;;;;;;;10.48;8.93;;;1.00;99.90;;;;;;5073701;28;20266;-66
2021/11/29 01:39:19;;;;;;;12.63;9.02;;;1.10;99.90;;;;;;5074014;28;20196;-67
2021/11/29 01:41:47;;;;;;;12.73;9.43;;;1.10;99.90;;;;;;5073830;28;20204;-67
2021/11/29 01:44:14;;;;;;;9.57;8.57;;;1.10;99.90;;;;;;5074034;28;20222;-68
2021/11/29 01:46:43;;;;;;;12.00;10.02;;;1.10;99.90;;;;;;5073352;28;20228;-67
2021/11/29 01:49:09;;;;;;;12.68;10.05;;;1.10;99.90;;;;;;5073277;28;20268;-66
2021/11/29 01:51:36;;;;;;;10.88;8.38;;;1.20;99.90;;;;;;5073755;28;20550;-68
2021/11/29 01:54:03;;;;;;;13.00;10.45;;;1.20;99.90;;;;;;5073370;28;20224;-67
2021/11/29 01:56:31;;;;;;;10.98;8.63;;;1.30;99.90;;;;;;5074017;28;20294;-68
2021/11/29 01:58:57;;;;;;;11.77;10.10;;;1.30;99.90;;;;;;5073406;28;20253;-67
2021/11/29 02:01:26;;;;;;;11.13;9.13;;;1.30;99.90;;;;;;5073486;28;20617;-68
2021/11/29 02:03:57;;;;;;;19.17;9.90;;;1.30;99.90;;;;;;5071936;28;20222;-66
2021/11/29 02:06:26;;;;;;;9.73;8.45;;;1.30;99.90;;;;;;5072125;28;20215;-67
2021/11/29 02:08:52;;;;;;;12.50;9.88;;;1.30;99.90;;;;;;5073281;28;20196;-67
2021/11/29 02:11:24;;;;;;;12.38;10.38;;;1.30;99.90;;;;;;5073202;28;20564;-67
2021/11/29 02:13:54;;;;;;;12.70;10.57;;;1.30;99.90;;;;;;5073459;28;20214;-67
2021/11/29 02:16:22;;;;;;;13.48;10.50;;;1.40;99.90;;;;;;5071785;28;20230;-67
2021/11/29 02:18:48;;;;;;;14.52;10.82;;;1.40;99.90;;;;;;5073099;28;20206;-67
2021/11/29 02:21:20;;;;;;;13.18;10.23;;;1.50;99.90;;;;;;5072087;28;20196;-67
2021/11/29 02:24:07;;;;;;;15.15;9.95;;;1.50;99.90;;;;;;5073483;28;20191;-67
2021/11/29 02:26:36;;;;;;;14.75;10.35;;;1.60;99.90;;;;;;5073308;28;20219;-67
2021/11/29 02:29:11;;;;;;;16.30;11.23;;;1.50;99.90;;;;;;5072909;28;20196;-67
2021/11/29 02:31:40;;;;;;;18.65;12.13;;;1.50;99.90;;;;;;5073510;28;20237;-67
2021/11/29 02:34:13;;;;;;;14.65;11.38;;;1.60;99.90;;;;;;5072925;28;20659;-66
2021/11/29 02:36:40;;;;;;;17.40;12.20;;;1.60;99.90;;;;;;5072996;28;20184;-66
2021/11/29 02:39:07;;;;;;;15.80;12.02;;;1.70;99.90;;;;;;5072974;28;20200;-67
2021/11/29 02:41:34;;;;;;;24.48;13.20;;;1.60;99.90;;;;;;5072856;28;20643;-66
2021/11/29 02:44:01;;;;;;;20.17;13.63;;;1.60;99.90;;;;;;5072556;28;20198;-67
2021/11/29 02:46:27;;;;;;;18.58;12.60;;;1.70;99.90;;;;;;5072840;28;20584;-67
2021/11/29 02:48:53;;;;;;;17.30;12.85;;;1.70;99.90;;;;;;5073307;28;20201;-67
2021/11/29 02:51:36;;;;;;;21.90;13.32;;;1.70;99.90;;;;;;5072252;28;20620;-67
2021/11/29 02:54:11;;;;;;;20.30;14.05;;;1.80;99.90;;;;;;5071439;28;20216;-66
2021/11/29 02:56:40;;;;;;;22.38;14.10;;;1.80;99.90;;;;;;5073007;28;20187;-67
2021/11/29 02:59:10;;;;;;;19.55;13.25;;;1.90;99.90;;;;;;5072397;28;20203;-68
2021/11/29 03:01:41;;;;;;;21.50;14.55;;;2.00;99.90;;;;;;5074186;28;20207;-68
2021/11/29 03:04:07;;;;;;;20.48;13.25;;;2.00;99.90;;;;;;5076374;28;20184;-67
2021/11/29 03:06:34;;;;;;;19.00;13.35;;;2.00;99.90;;;;;;5076038;28;20496;-67
2021/11/29 03:09:01;;;;;;;21.40;13.52;;;2.10;99.90;;;;;;5076527;28;20207;-67
2021/11/29 03:11:28;;;;;;;19.38;13.30;;;2.10;99.90;;;;;;5076351;28;20202;-66
2021/11/29 03:13:57;;;;;;;16.23;11.82;;;2.20;99.90;;;;;;5076141;28;20199;-67
2021/11/29 03:16:24;;;;;;;26.55;15.20;;;2.20;99.90;;;;;;5075951;28;20572;-66
2021/11/29 03:18:51;;;;;;;36.20;22.00;;;2.10;99.90;;;;;;5075977;28;20204;-67
2021/11/29 03:21:20;;;;;;;32.40;22.48;;;2.10;99.90;;;;;;5076012;28;20208;-67
2021/11/29 03:23:50;;;;;;;31.40;21.90;;;2.10;99.90;;;;;;5075774;28;20200;-67
2021/11/29 03:26:18;;;;;;;17.73;12.80;;;2.10;99.90;;;;;;5075931;28;20277;-67
2021/11/29 03:28:56;;;;;;;18.50;13.13;;;2.20;99.90;;;;;;5076076;28;20202;-67
2021/11/29 03:31:29;;;;;;;15.68;11.80;;;2.20;99.90;;;;;;5074892;28;20667;-67
2021/11/29 03:33:57;;;;;;;19.27;14.70;;;2.20;99.90;;;;;;5074765;28;20212;-66
2021/11/29 03:36:26;;;;;;;20.00;12.10;;;2.10;99.90;;;;;;5075600;28;20662;-67
2021/11/29 03:38:53;;;;;;;18.02;12.90;;;2.00;99.90;;;;;;5074692;28;20575;-67
2021/11/29 03:41:20;;;;;;;17.60;11.68;;;2.00;99.90;;;;;;5074808;28;20211;-66
2021/11/29 03:43:47;;;;;;;16.95;11.65;;;2.10;99.90;;;;;;5075544;28;20219;-66
2021/11/29 03:46:14;;;;;;;20.73;12.82;;;2.10;99.90;;;;;;5075830;28;20228;-66
2021/11/29 03:48:40;;;;;;;17.55;12.40;;;2.10;99.90;;;;;;5076062;28;20215;-66
2021/11/29 03:51:07;;;;;;;18.35;13.35;;;2.00;99.90;;;;;;5075363;28;20228;-66
2021/11/29 03:53:34;;;;;;;15.98;11.98;;;1.90;99.90;;;;;;5075654;28;20624;-65
2021/11/29 03:56:01;;;;;;;17.98;11.55;;;1.80;99.90;;;;;;5075711;28;20230;-65
2021/11/29 03:58:27;;;;;;;18.80;12.88;;;1.70;99.90;;;;;;5075781;28;20203;-66
2021/11/29 04:00:54;;;;;;;20.13;12.90;;;1.60;99.90;;;;;;5075202;28;20196;-66
2021/11/29 04:03:21;;;;;;;20.63;12.80;;;1.50;99.90;;;;;;5075518;28;20206;-67
2021/11/29 04:05:47;;;;;;;17.05;11.57;;;1.40;99.90;;;;;;5074747;28;20238;-67
2021/11/29 04:08:14;;;;;;;20.92;11.82;;;1.30;99.90;;;;;;5075231;28;20595;-67
2021/11/29 04:10:41;;;;;;;17.70;12.02;;;1.30;99.90;;;;;;5074864;28;20196;-67
2021/11/29 04:13:08;;;;;;;19.60;11.88;;;1.30;99.90;;;;;;5075173;28;20196;-67
2021/11/29 04:15:34;;;;;;;21.42;13.25;;;1.30;99.90;;;;;;5074870;28;20686;-67
2021/11/29 04:18:01;;;;;;;18.50;11.32;;;1.20;99.90;;;;;;5075219;28;20203;-66
2021/11/29 04:20:28;;;;;;;16.60;11.70;;;1.10;99.90;;;;;;5075305;28;20204;-66
2021/11/29 04:22:54;;;;;;;22.58;12.90;;;1.10;99.90;;;;;;5074509;28;20233;-67
2021/11/29 04:25:24;;;;;;;21.63;14.52;;;1.00;99.90;;;;;;5074589;28;20682;-67
2021/11/29 04:27:52;;;;;;;27.98;15.50;;;1.00;99.90;;;;;;5074550;28;20227;-67
2021/11/29 04:30:23;;;;;;;26.83;15.20;;;1.00;99.90;;;;;;5074246;28;20208;-67
2021/11/29 04:32:53;;;;;;;25.35;15.25;;;1.00;99.90;;;;;;5073145;28;20208;-67
2021/11/29 04:35:19;;;;;;;23.83;14.23;;;0.90;99.90;;;;;;5074597;28;20196;-67
2021/11/29 04:37:46;;;;;;;24.65;16.20;;;0.90;99.90;;;;;;5074548;28;20215;-67
2021/11/29 04:40:14;;;;;;;19.55;13.30;;;0.80;99.90;;;;;;5074548;28;20215;-67
2021/11/29 04:42:41;;;;;;;21.65;13.25;;;0.80;99.90;;;;;;5074584;28;20203;-67
2021/11/29 04:45:08;;;;;;;21.95;12.93;;;0.80;99.90;;;;;;5074336;28;20204;-67
2021/11/29 04:47:35;;;;;;;19.30;13.13;;;0.70;99.90;;;;;;5074370;28;20224;-67
2021/11/29 04:50:01;;;;;;;20.52;12.20;;;0.70;99.90;;;;;;5074218;28;20232;-67
2021/11/29 04:52:28;;;;;;;17.27;12.30;;;0.60;99.90;;;;;;5073914;28;20204;-67
2021/11/29 04:54:54;;;;;;;18.90;12.38;;;0.50;99.90;;;;;;5074135;28;20254;-67
2021/11/29 04:57:21;;;;;;;17.42;12.60;;;0.50;99.90;;;;;;5074105;28;20208;-66
2021/11/29 04:59:48;;;;;;;19.23;12.35;;;0.50;99.90;;;;;;5074193;28;20199;-66
2021/11/29 05:02:14;;;;;;;24.77;15.05;;;0.40;99.90;;;;;;5072599;28;20212;-66
2021/11/29 05:04:46;;;;;;;21.42;14.60;;;0.40;99.90;;;;;;5073764;28;20659;-66
2021/11/29 05:07:16;;;;;;;23.25;14.73;;;0.30;99.90;;;;;;5074240;28;20219;-66
2021/11/29 05:09:44;;;;;;;27.20;14.27;;;0.30;99.90;;;;;;5074224;28;20207;-67
2021/11/29 05:12:14;;;;;;;22.58;14.80;;;0.20;99.90;;;;;;5073734;28;20212;-66
2021/11/29 05:14:42;;;;;;;22.85;14.23;;;0.20;99.90;;;;;;5073703;28;20191;-66
2021/11/29 05:17:08;;;;;;;20.38;12.30;;;0.10;99.90;;;;;;5074142;28;20200;-66
2021/11/29 05:19:35;;;;;;;20.15;13.30;;;0.10;99.90;;;;;;5073883;28;20204;-66
2021/11/29 05:22:02;;;;;;;23.38;15.63;;;0.10;99.90;;;;;;5073740;28;20200;-68
2021/11/29 05:24:28;;;;;;;21.45;13.95;;;0.00;99.90;;;;;;5073020;28;20199;-67
2021/11/29 05:26:55;;;;;;;20.65;11.50;;;0.00;99.90;;;;;;5073352;28;20227;-66
2021/11/29 05:29:21;;;;;;;20.73;13.18;;;-0.10;99.90;;;;;;5073772;28;20261;-67
2021/11/29 05:31:48;;;;;;;22.85;12.07;;;-0.10;99.90;;;;;;5073661;28;20219;-67
2021/11/29 05:34:16;;;;;;;22.23;12.23;;;-0.20;99.90;;;;;;5073325;28;20206;-67
2021/11/29 05:36:42;;;;;;;23.38;11.73;;;-0.20;99.90;;;;;;5072962;28;20659;-67
2021/11/29 05:39:09;;;;;;;21.45;12.13;;;-0.20;99.90;;;;;;5073727;28;20204;-67
2021/11/29 05:41:35;;;;;;;17.52;11.05;;;-0.20;99.90;;;;;;5073343;28;20237;-67
2021/11/29 05:44:03;;;;;;;18.25;11.32;;;-0.20;99.90;;;;;;5073309;28;20203;-67
2021/11/29 05:46:29;;;;;;;16.45;10.18;;;-0.20;99.90;;;;;;5073257;28;20219;-67
2021/11/29 05:48:57;;;;;;;19.35;12.02;;;-0.30;99.90;;;;;;5073388;28;20207;-67
2021/11/29 05:51:23;;;;;;;18.45;10.68;;;-0.30;99.90;;;;;;5073200;28;20235;-67
2021/11/29 05:53:51;;;;;;;18.75;11.65;;;-0.30;99.90;;;;;;5073266;28;20219;-67
2021/11/29 05:56:18;;;;;;;20.60;11.80;;;-0.30;99.90;;;;;;5073652;28;20214;-67
2021/11/29 05:58:44;;;;;;;40.10;23.05;;;-0.40;99.90;;;;;;5071990;28;20196;-67
2021/11/29 06:01:11;;;;;;;31.02;18.95;;;-0.40;99.90;;;;;;5073043;28;20249;-67
2021/11/29 06:03:37;;;;;;;41.50;22.90;;;-0.40;99.90;;;;;;5072900;28;20196;-67
2021/11/29 06:06:04;;;;;;;28.55;15.90;;;-0.30;99.90;;;;;;5073143;28;20204;-67
2021/11/29 06:08:31;;;;;;;31.73;18.13;;;-0.20;99.90;;;;;;5073639;28;20249;-67
2021/11/29 06:10:58;;;;;;;23.50;14.15;;;-0.10;99.90;;;;;;5072951;28;20207;-67
2021/11/29 06:13:24;;;;;;;20.55;12.93;;;-0.10;99.90;;;;;;5072922;28;20207;-67
2021/11/29 06:15:50;;;;;;;18.75;12.60;;;0.00;99.90;;;;;;5073238;28;20205;-67
2021/11/29 06:18:17;;;;;;;24.05;14.40;;;0.00;99.90;;;;;;5072138;28;20245;-67
2021/11/29 06:20:43;;;;;;;26.40;13.10;;;0.00;99.90;;;;;;5072568;28;20203;-67
2021/11/29 06:23:10;;;;;;;22.20;13.35;;;0.00;99.90;;;;;;5072892;28;20208;-67
2021/11/29 06:25:38;;;;;;;14.82;9.35;;;0.00;99.90;;;;;;5072992;28;20204;-67
2021/11/29 06:28:06;;;;;;;14.75;9.50;;;-0.10;99.90;;;;;;5072376;28;20727;-67
2021/11/29 06:30:33;;;;;;;16.85;8.68;;;-0.20;99.90;;;;;;5073158;28;20257;-67
2021/11/29 06:33:00;;;;;;;14.00;8.73;;;-0.30;99.90;;;;;;5072817;28;20218;-67
2021/11/29 06:35:27;;;;;;;12.32;8.52;;;-0.40;99.90;;;;;;5074532;28;20200;-67
2021/11/29 06:37:59;;;;;;;17.40;10.07;;;-0.30;99.90;;;;;;5076900;28;20280;-67
2021/11/29 06:40:26;;;;;;;13.88;8.70;;;-0.30;99.90;;;;;;5076271;28;20582;-67
2021/11/29 06:42:54;;;;;;;17.20;9.32;;;-0.40;99.90;;;;;;5076277;28;20321;-67
2021/11/29 06:45:21;;;;;;;12.98;8.02;;;-0.40;99.90;;;;;;5076125;28;20253;-67
2021/11/29 06:47:48;;;;;;;17.10;9.05;;;-0.40;99.90;;;;;;5076315;28;20215;-67
2021/11/29 06:50:15;;;;;;;12.13;8.00;;;-0.40;99.90;;;;;;5075906;28;20717;-68
2021/11/29 06:52:41;;;;;;;17.05;10.35;;;-0.40;99.90;;;;;;5076057;28;20559;-67
2021/11/29 06:55:12;;;;;;;26.55;9.23;;;-0.50;99.90;;;;;;5076302;28;20610;-67
2021/11/29 06:57:39;;;;;;;13.60;9.00;;;-0.50;99.90;;;;;;5076325;28;20607;-66
2021/11/29 07:00:07;;;;;;;10.65;8.13;;;-0.60;99.90;;;;;;5076281;28;20612;-66
2021/11/29 07:02:34;;;;;;;22.02;8.57;;;-0.60;99.90;;;;;;5076310;28;20207;-66
2021/11/29 07:05:00;;;;;;;15.32;8.40;;;-0.60;99.90;;;;;;5074640;28;20200;-66
2021/11/29 07:07:27;;;;;;;14.57;8.65;;;-0.60;99.90;;;;;;5075849;28;20698;-66
2021/11/29 07:09:53;;;;;;;16.90;8.25;;;-0.60;99.90;;;;;;5075755;28;20678;-66
2021/11/29 07:12:20;;;;;;;11.07;7.53;;;-0.60;99.90;;;;;;5075830;28;20231;-66
2021/11/29 07:14:46;;;;;;;13.40;8.10;;;-0.60;99.90;;;;;;5075854;28;20200;-66
2021/11/29 07:17:13;;;;;;;11.45;7.20;;;-0.50;99.90;;;;;;5075736;28;20659;-67
2021/11/29 07:19:39;;;;;;;13.90;8.80;;;-0.50;99.90;;;;;;5074666;28;20207;-67
2021/11/29 07:22:06;;;;;;;11.65;8.48;;;-0.50;99.90;;;;;;5075981;28;20268;-68
2021/11/29 07:24:34;;;;;;;10.52;7.55;;;-0.40;99.90;;;;;;5074395;28;20203;-67
2021/11/29 07:27:01;;;;;;;13.15;8.10;;;-0.20;99.90;;;;;;5075725;28;20288;-67
2021/11/29 07:29:27;;;;;;;16.85;8.60;;;-0.10;99.90;;;;;;5075688;28;20196;-67
2021/11/29 07:31:54;;;;;;;19.10;10.52;;;0.00;99.90;;;;;;5075299;28;20200;-67
2021/11/29 07:34:20;;;;;;;13.68;7.18;;;0.10;99.90;;;;;;5075974;28;20262;-67
2021/11/29 07:36:47;;;;;;;13.00;7.65;;;0.20;99.90;;;;;;5075732;28;20200;-67
2021/11/29 07:39:13;;;;;;;12.07;7.47;;;0.30;99.90;;;;;;5075504;28;20258;-67
2021/11/29 07:41:40;;;;;;;13.15;8.15;;;0.30;99.90;;;;;;5075259;28;20215;-66
2021/11/29 07:44:06;;;;;;;11.63;8.15;;;0.40;99.90;;;;;;5075228;28;20725;-66
2021/11/29 07:46:33;;;;;;;15.55;8.30;;;0.50;99.90;;;;;;5074951;28;20234;-67
2021/11/29 07:49:00;;;;;;;11.88;7.60;;;0.60;99.90;;;;;;5075143;28;20260;-67
2021/11/29 07:51:28;;;;;;;12.63;7.10;;;0.80;99.90;;;;;;5075210;28;20207;-67
2021/11/29 07:53:54;;;;;;;16.50;7.72;;;0.90;99.90;;;;;;5075244;28;20211;-66
2021/11/29 07:56:21;;;;;;;12.57;7.45;;;1.00;99.90;;;;;;5075559;28;20253;-66
2021/11/29 07:58:48;;;;;;;13.50;6.93;;;1.10;99.90;;;;;;5075334;28;20204;-67
2021/11/29 08:01:15;;;;;;;8.60;7.00;;;1.20;99.90;;;;;;5073912;28;20208;-68
2021/11/29 08:03:42;;;;;;;13.13;6.97;;;1.30;99.90;;;;;;5075126;28;20207;-67
2021/11/29 08:06:08;;;;;;;15.02;6.68;;;1.40;99.90;;;;;;5074970;28;20572;-67
2021/11/29 08:08:35;;;;;;;11.57;6.88;;;1.40;99.90;;;;;;5075175;28;20224;-67
2021/11/29 08:11:02;;;;;;;11.45;7.18;;;1.50;99.90;;;;;;5073959;28;20725;-67
2021/11/29 08:13:28;;;;;;;8.25;6.45;;;1.60;99.90;;;;;;5075333;28;20223;-67
2021/11/29 08:15:55;;;;;;;9.88;6.82;;;1.70;99.90;;;;;;5075178;28;20261;-66
2021/11/29 08:18:21;;;;;;;10.30;7.05;;;1.70;99.90;;;;;;5075280;28;20212;-66
2021/11/29 08:20:48;;;;;;;11.90;6.70;;;1.70;99.90;;;;;;5073382;28;20203;-67
2021/11/29 08:23:15;;;;;;;8.23;5.80;;;1.70;99.90;;;;;;5074782;28;20215;-66
2021/11/29 08:25:42;;;;;;;13.52;7.88;;;1.70;99.90;;;;;;5074904;28;20203;-66
2021/11/29 08:28:10;;;;;;;9.85;5.82;;;1.70;99.90;;;;;;5074584;28;20230;-67
2021/11/29 08:30:38;;;;;;;9.40;6.75;;;1.80;99.90;;;;;;5074317;28;20206;-67
2021/11/29 08:33:05;;;;;;;15.30;6.85;;;1.80;99.90;;;;;;5074553;28;20200;-67
2021/11/29 08:35:32;;;;;;;7.88;6.35;;;1.80;99.90;;;;;;5074442;28;20207;-67
2021/11/29 08:37:59;;;;;;;12.73;6.68;;;1.90;99.90;;;;;;5074697;28;20196;-67
2021/11/29 08:40:29;;;;;;;11.82;6.10;;;2.00;99.90;;;;;;5074655;28;20203;-67
2021/11/29 08:42:59;;;;;;;8.23;5.22;;;2.10;99.90;;;;;;5074742;28;20204;-67
2021/11/29 08:45:27;;;;;;;9.40;6.35;;;2.20;99.90;;;;;;5072999;28;20270;-67
2021/11/29 08:47:55;;;;;;;8.98;5.53;;;2.30;99.90;;;;;;5074245;28;20229;-67
2021/11/29 08:50:22;;;;;;;14.20;5.70;;;2.30;99.90;;;;;;5074201;28;20703;-67
2021/11/29 08:52:49;;;;;;;8.77;5.30;;;2.30;99.90;;;;;;5074203;28;20196;-67
2021/11/29 08:55:15;;;;;;;8.73;5.53;;;2.30;99.90;;;;;;5074256;28;20238;-67
2021/11/29 08:57:42;;;;;;;9.25;5.30;;;2.30;99.90;;;;;;5073952;28;20207;-68
2021/11/29 09:00:12;;;;;;;6.38;5.68;;;2.40;99.90;;;;;;5074390;28;20261;-67
2021/11/29 09:02:39;;;;;;;11.13;5.93;;;2.50;99.90;;;;;;5073988;28;20241;-67
2021/11/29 09:05:07;;;;;;;9.90;5.35;;;2.50;99.90;;;;;;5073717;28;20211;-67
2021/11/29 09:07:34;;;;;;;7.35;5.78;;;2.40;99.90;;;;;;5073682;28;20238;-67
2021/11/29 09:10:03;;;;;;;7.07;6.38;;;2.40;99.90;;;;;;5073773;28;20245;-67
2021/11/29 09:12:29;;;;;;;9.65;7.20;;;2.40;99.90;;;;;;5074138;28;20196;-67
2021/11/29 09:14:56;;;;;;;12.45;5.53;;;2.50;99.90;;;;;;5074165;28;20200;-66
2021/11/29 09:17:22;;;;;;;7.47;5.97;;;2.40;99.90;;;;;;5073830;28;20663;-66
2021/11/29 09:19:50;;;;;;;8.20;6.07;;;2.40;99.90;;;;;;5072563;28;20204;-66
2021/11/29 09:22:16;;;;;;;7.00;5.57;;;2.40;99.90;;;;;;5073649;28;20200;-66
2021/11/29 09:24:43;;;;;;;13.80;7.15;;;2.40;99.90;;;;;;5074065;28;20211;-67
2021/11/29 09:27:09;;;;;;;8.23;6.53;;;2.50;99.90;;;;;;5073589;28;20204;-67
2021/11/29 09:29:36;;;;;;;7.75;6.72;;;2.40;99.90;;;;;;5073759;28;20192;-67
2021/11/29 09:32:04;;;;;;;13.07;6.65;;;2.30;99.90;;;;;;5074019;28;20200;-67
2021/11/29 09:34:31;;;;;;;13.80;7.20;;;2.20;99.90;;;;;;5073912;28;20579;-67
2021/11/29 09:36:58;;;;;;;8.35;6.53;;;2.20;99.90;;;;;;5073405;28;20204;-67
2021/11/29 09:39:24;;;;;;;10.63;6.00;;;2.20;99.90;;;;;;5073406;28;20204;-67
2021/11/29 09:41:51;;;;;;;12.20;7.88;;;2.20;99.90;;;;;;5073355;28;20219;-66
2021/11/29 09:44:17;;;;;;;12.88;6.97;;;2.20;99.90;;;;;;5073522;28;20207;-66
2021/11/29 09:46:45;;;;;;;7.15;6.05;;;2.10;99.90;;;;;;5073707;28;20283;-67
2021/11/29 09:49:12;;;;;;;17.17;7.50;;;2.10;99.90;;;;;;5073190;28;20281;-67
2021/11/29 09:51:38;;;;;;;11.40;6.90;;;2.10;99.90;;;;;;5073962;28;20181;-67
2021/11/29 09:54:08;;;;;;;10.02;6.72;;;2.10;99.90;;;;;;5074436;28;20216;-67
2021/11/29 09:56:36;;;;;;;7.10;6.40;;;2.00;99.90;;;;;;5073862;28;20196;-66
2021/11/29 09:59:03;;;;;;;11.85;7.20;;;2.00;99.90;;;;;;5073880;28;20199;-66
2021/11/29 10:01:30;;;;;;;15.20;8.05;;;2.00;99.90;;;;;;5072332;28;20207;-66
2021/11/29 10:03:57;;;;;;;18.02;9.00;;;2.10;99.90;;;;;;5073318;28;20204;-66
2021/11/29 10:06:24;;;;;;;9.95;7.40;;;2.30;99.90;;;;;;5072166;28;20210;-66
2021/11/29 10:08:52;;;;;;;9.27;6.80;;;2.60;99.90;;;;;;5073297;28;20228;-66
2021/11/29 10:11:19;;;;;;;7.85;6.70;;;2.60;99.90;;;;;;5073345;28;20196;-66
2021/11/29 10:13:49;;;;;;;6.57;5.75;;;2.80;99.90;;;;;;5073777;28;20196;-67
2021/11/29 10:16:39;;;;;;;9.13;6.35;;;3.00;99.90;;;;;;5073258;28;20196;-68
2021/11/29 10:19:24;;;;;;;7.25;6.40;;;3.10;99.90;;;;;;5071869;28;20617;-68
2021/11/29 10:21:51;;;;;;;8.45;5.85;;;3.20;99.90;;;;;;5073006;28;20199;-68
2021/11/29 10:24:19;;;;;;;7.25;6.45;;;3.20;99.90;;;;;;5072680;28;20663;-68
2021/11/29 10:26:51;;;;;;;11.57;6.68;;;3.30;99.90;;;;;;5072808;28;20206;-68
2021/11/29 10:29:18;;;;;;;6.88;6.13;;;3.30;99.90;;;;;;5072868;28;20226;-68
2021/11/29 10:31:53;;;;;;;11.27;6.63;;;3.20;99.90;;;;;;5071543;28;20196;-68
2021/11/29 10:34:29;;;;;;;9.02;7.28;;;3.10;99.90;;;;;;5073324;28;20553;-68
2021/11/29 10:37:00;;;;;;;13.02;6.97;;;3.00;99.90;;;;;;5072809;28;20202;-66
2021/11/29 10:39:30;;;;;;;8.23;7.40;;;3.10;99.90;;;;;;5073065;28;20190;-67
2021/11/29 10:41:59;;;;;;;9.55;7.85;;;2.90;99.90;;;;;;5073034;28;20717;-67
2021/11/29 10:44:32;;;;;;;8.70;6.70;;;2.90;99.90;;;;;;5073121;28;20204;-67
2021/11/29 10:47:11;;;;;;;9.07;7.00;;;2.90;99.90;;;;;;5073102;28;20211;-67
2021/11/29 10:49:40;;;;;;;11.88;6.72;;;2.80;99.90;;;;;;5072618;28;20228;-68
2021/11/29 10:52:09;;;;;;;9.85;6.70;;;2.90;99.90;;;;;;5073482;28;20200;-68
2021/11/29 10:54:39;;;;;;;9.20;7.65;;;3.00;99.90;;;;;;5073315;28;20219;-67
2021/11/29 10:57:07;;;;;;;9.45;6.65;;;2.90;99.90;;;;;;5072901;28;20269;-66
2021/11/29 10:59:39;;;;;;;12.82;7.07;;;2.90;99.90;;;;;;5072732;28;20568;-66
2021/11/29 11:02:13;;;;;;;10.02;6.00;;;3.00;99.90;;;;;;5072878;28;20200;-66
2021/11/29 11:04:46;;;;;;;7.80;6.38;;;3.00;99.90;;;;;;5072730;28;20591;-66
2021/11/29 11:07:25;;;;;;;5.82;5.32;;;3.00;99.90;;;;;;5072680;28;20208;-66
2021/11/29 11:09:58;;;;;;;7.05;5.82;;;3.20;99.90;;;;;;5072965;28;20660;-65
2021/11/29 11:12:28;;;;;;;11.10;6.60;;;3.10;99.90;;;;;;5072509;28;20181;-66
2021/11/29 11:15:00;;;;;;;10.25;6.00;;;3.10;99.90;;;;;;5072687;28;20261;-68
2021/11/29 11:17:29;;;;;;;13.65;7.05;;;3.20;99.90;;;;;;5072885;28;20200;-67
2021/11/29 11:20:00;;;;;;;7.35;6.30;;;3.10;99.90;;;;;;5072663;28;20659;-67
2021/11/29 11:22:32;;;;;;;10.63;6.90;;;3.30;99.90;;;;;;5075672;28;20188;-67
2021/11/29 11:25:07;;;;;;;8.75;5.68;;;3.40;99.90;;;;;;5075035;28;20651;-67
2021/11/29 11:27:38;;;;;;;7.78;5.90;;;3.30;99.90;;;;;;5074471;28;20615;-67
2021/11/29 11:30:10;;;;;;;9.63;5.80;;;3.10;99.90;;;;;;5076036;28;20203;-67
2021/11/29 11:32:42;;;;;;;7.22;6.53;;;3.10;99.90;;;;;;5075977;28;20218;-67
2021/11/29 11:35:21;;;;;;;9.73;6.47;;;3.00;99.90;;;;;;5075749;28;20203;-67
2021/11/29 11:37:51;;;;;;;10.30;5.68;;;3.00;99.90;;;;;;5076069;28;20199;-67
2021/11/29 11:40:23;;;;;;;9.80;6.43;;;3.00;99.90;;;;;;5075507;28;20208;-68
2021/11/29 11:42:51;;;;;;;10.20;5.93;;;3.10;99.90;;;;;;5076087;28;20200;-67
2021/11/29 11:45:20;;;;;;;6.38;5.38;;;3.10;99.90;;;;;;5075998;28;20207;-67
2021/11/29 11:47:48;;;;;;;7.70;6.38;;;3.10;99.90;;;;;;5075961;28;20220;-66
2021/11/29 11:50:19;;;;;;;9.20;5.85;;;3.10;99.90;;;;;;5075451;28;20224;-68
2021/11/29 11:52:46;;;;;;;9.20;6.07;;;3.10;99.90;;;;;;5075498;28;20185;-67
2021/11/29 11:55:19;;;;;;;5.60;4.85;;;3.10;99.90;;;;;;5075515;28;20207;-67
2021/11/29 11:57:52;;;;;;;9.45;5.57;;;3.20;99.90;;;;;;5075820;28;20218;-67
2021/11/29 12:00:30;;;;;;;7.10;5.43;;;3.30;99.90;;;;;;5075446;28;20212;-68
2021/11/29 12:03:18;;;;;;;5.20;4.70;;;3.30;99.90;;;;;;5075248;28;20203;-67
2021/11/29 12:05:54;;;;;;;8.13;5.82;;;3.20;99.90;;;;;;5074848;28;20192;-67
2021/11/29 12:08:40;;;;;;;8.15;4.93;;;3.20;99.90;;;;;;5073879;28;20237;-67
2021/11/29 12:11:26;;;;;;;8.57;4.68;;;3.20;99.90;;;;;;5074767;28;20255;-67
2021/11/29 12:14:31;;;;;;;6.38;5.03;;;3.20;99.90;;;;;;5075571;28;20203;-67
2021/11/29 12:17:01;;;;;;;6.30;5.05;;;3.10;99.90;;;;;;5065721;28;20204;-67
2021/11/29 12:19:27;;;;;;;14.57;5.05;;;3.20;99.90;;;;;;5055096;28;20215;-68
2021/11/29 12:22:05;;;;;;;5.57;4.25;;;3.20;99.90;;;;;;5055315;28;20205;-67
2021/11/29 12:24:42;;;;;;;8.90;5.35;;;3.20;99.90;;;;;;5053952;28;20379;-67
2021/11/29 12:27:10;;;;;;;6.95;4.60;;;3.10;99.90;;;;;;5055366;28;20189;-67
2021/11/29 12:29:56;;;;;;;8.07;4.97;;;3.10;99.90;;;;;;5069507;28;20223;-68
2021/11/29 12:32:24;;;;;;;6.53;5.28;;;3.10;99.90;;;;;;5074611;28;20195;-67
2021/11/29 12:34:54;;;;;;;4.22;3.83;;;3.10;99.90;;;;;;5072850;28;20211;-68
2021/11/29 12:37:23;;;;;;;6.28;4.80;;;3.20;99.90;;;;;;5074739;28;20207;-68
2021/11/29 12:39:58;;;;;;;4.72;4.32;;;3.20;99.90;;;;;;5074173;28;20203;-68
2021/11/29 12:42:27;;;;;;;6.22;4.40;;;3.10;99.90;;;;;;5073514;28;20616;-67
2021/11/29 12:45:21;;;;;;;7.43;5.03;;;3.10;99.90;;;;;;5074655;28;20204;-69
2021/11/29 12:47:51;;;;;;;6.88;4.50;;;3.10;99.90;;;;;;5071292;28;20208;-67
2021/11/29 12:50:31;;;;;;;8.15;5.75;;;3.20;99.90;;;;;;5074367;28;20281;-67